createdAt,value
2019-02-14T00:00:42.759Z,4.23
2019-02-14T00:03:12.120Z,4.47
2019-02-14T00:05:41.481Z,3.80
2019-02-14T00:08:10.851Z,4.73
2019-02-14T00:10:40.237Z,6.77
2019-02-14T00:13:09.574Z,5.10
2019-02-14T00:15:38.943Z,3.57
2019-02-14T00:18:08.295Z,3.87
2019-02-14T00:20:37.670Z,5.63
2019-02-14T00:23:06.996Z,4.33
2019-02-14T00:25:36.375Z,4.03
2019-02-14T00:28:05.755Z,3.50
2019-02-14T00:30:35.108Z,4.87
2019-02-14T00:33:04.465Z,4.10
2019-02-14T00:35:33.835Z,3.23
2019-02-14T00:38:03.209Z,3.77
2019-02-14T00:40:32.568Z,3.47
2019-02-14T00:43:01.906Z,4.43
2019-02-14T00:45:31.295Z,4.63
2019-02-14T00:48:00.684Z,4.47
2019-02-14T00:50:30.030Z,4.03
2019-02-14T00:52:59.367Z,3.40
2019-02-14T00:55:28.718Z,6.77
2019-02-14T00:57:58.055Z,3.43
2019-02-14T01:00:27.418Z,3.77
2019-02-14T01:02:56.763Z,5.53
2019-02-14T01:05:33.402Z,5.13
2019-02-14T01:07:57.268Z,4.87
2019-02-14T01:10:26.598Z,4.87
2019-02-14T01:12:55.975Z,4.87
2019-02-14T01:15:26.402Z,5.03
2019-02-14T01:17:55.768Z,4.93
2019-02-14T01:20:25.118Z,5.00
2019-02-14T01:22:54.476Z,5.80
2019-02-14T01:25:23.843Z,6.63
2019-02-14T01:27:53.174Z,6.73
2019-02-14T01:30:22.594Z,5.03
2019-02-14T01:32:51.969Z,5.77
2019-02-14T01:35:21.352Z,5.50
2019-02-14T01:37:50.698Z,5.87
2019-02-14T01:40:20.100Z,4.07
2019-02-14T01:42:49.464Z,5.53
2019-02-14T01:45:18.817Z,6.47
2019-02-14T01:47:48.197Z,4.90
2019-02-14T01:50:17.567Z,5.20
2019-02-14T01:52:46.956Z,5.43
2019-02-14T01:55:16.304Z,6.33
2019-02-14T01:57:45.699Z,6.40
2019-02-14T02:00:16.050Z,5.03
2019-02-14T02:02:45.402Z,5.87
2019-02-14T02:05:14.821Z,8.80
2019-02-14T02:07:44.149Z,8.70
2019-02-14T02:10:13.799Z,10.43
2019-02-14T02:12:43.149Z,7.97
2019-02-14T02:15:14.193Z,8.70
2019-02-14T02:17:43.537Z,8.17
2019-02-14T02:20:13.059Z,9.30
2019-02-14T02:22:42.433Z,11.97
2019-02-14T02:25:12.366Z,9.17
2019-02-14T02:27:41.736Z,8.07
2019-02-14T02:30:13.070Z,8.77
2019-02-14T02:32:42.442Z,7.07
2019-02-14T02:35:11.780Z,10.67
2019-02-14T02:37:41.145Z,9.37
2019-02-14T02:40:10.674Z,8.93
2019-02-14T02:42:39.941Z,10.50
2019-02-14T02:45:10.994Z,11.50
2019-02-14T02:47:40.318Z,8.67
2019-02-14T02:50:11.517Z,8.53
2019-02-14T02:52:40.929Z,9.07
2019-02-14T02:55:11.576Z,9.60
2019-02-14T02:57:40.957Z,9.07
2019-02-14T03:00:13.539Z,9.33
2019-02-14T03:02:42.874Z,11.03
2019-02-14T03:05:13.489Z,10.87
2019-02-14T03:07:42.843Z,7.97
2019-02-14T03:10:12.795Z,11.17
2019-02-14T03:12:42.205Z,10.23
2019-02-14T03:15:12.652Z,7.77
2019-02-14T03:17:42.050Z,12.53
2019-02-14T03:20:11.893Z,8.60
2019-02-14T03:22:41.262Z,7.87
2019-02-14T03:25:13.425Z,7.97
2019-02-14T03:27:42.830Z,10.10
2019-02-14T03:30:12.983Z,12.30
2019-02-14T03:32:42.353Z,11.43
2019-02-14T03:35:11.737Z,10.17
2019-02-14T03:37:41.108Z,9.63
2019-02-14T03:40:11.293Z,10.47
2019-02-14T03:42:40.726Z,9.40
2019-02-14T03:45:12.895Z,11.17
2019-02-14T03:47:42.228Z,11.47
2019-02-14T03:50:11.746Z,9.43
2019-02-14T03:52:41.228Z,10.67
2019-02-14T03:55:10.631Z,7.30
2019-02-14T03:57:40.018Z,8.73
2019-02-14T04:00:12.134Z,11.70
2019-02-14T04:02:41.610Z,8.83
2019-02-14T04:05:11.157Z,14.17
2019-02-14T04:07:40.565Z,11.10
2019-02-14T04:10:11.401Z,11.33
2019-02-14T04:12:40.791Z,11.07
2019-02-14T04:15:12.345Z,11.10
2019-02-14T04:17:41.735Z,10.23
2019-02-14T04:20:11.399Z,12.97
2019-02-14T04:22:40.801Z,12.63
2019-02-14T04:25:10.460Z,12.13
2019-02-14T04:27:39.996Z,8.83
2019-02-14T04:30:10.637Z,11.03
2019-02-14T04:32:40.041Z,11.03
2019-02-14T04:35:09.714Z,10.33
2019-02-14T04:37:39.094Z,8.87
2019-02-14T04:40:10.414Z,11.07
2019-02-14T04:42:39.783Z,11.70
2019-02-14T04:45:09.406Z,9.70
2019-02-14T04:47:38.754Z,13.13
2019-02-14T04:50:08.543Z,10.27
2019-02-14T04:52:37.888Z,10.57
2019-02-14T04:55:07.622Z,11.97
2019-02-14T04:57:37.019Z,10.30
2019-02-14T05:00:07.613Z,12.73
2019-02-14T05:02:37.076Z,11.37
2019-02-14T05:05:06.930Z,13.07
2019-02-14T05:07:36.304Z,11.70
2019-02-14T05:10:06.258Z,11.37
2019-02-14T05:12:35.602Z,12.40
2019-02-14T05:15:05.190Z,12.67
2019-02-14T05:17:34.615Z,12.17
2019-02-14T05:20:03.977Z,11.57
2019-02-14T05:22:33.346Z,11.67
2019-02-14T05:25:02.769Z,8.47
2019-02-14T05:27:32.128Z,11.13
2019-02-14T05:30:01.531Z,10.90
2019-02-14T05:32:30.935Z,9.97
2019-02-14T05:35:00.264Z,9.77
2019-02-14T05:37:29.667Z,11.50
2019-02-14T05:39:59.022Z,10.50
2019-02-14T05:42:28.417Z,10.67
2019-02-14T05:44:57.786Z,15.47
2019-02-14T05:47:27.188Z,13.33
2019-02-14T05:49:56.587Z,9.77
2019-02-14T05:52:26.010Z,12.77
2019-02-14T05:54:55.383Z,11.87
2019-02-14T05:57:24.752Z,11.07
2019-02-14T05:59:54.111Z,11.93
2019-02-14T06:02:23.473Z,11.93
2019-02-14T06:04:52.830Z,10.37
2019-02-14T06:07:22.217Z,14.57
2019-02-14T06:09:51.580Z,12.40
2019-02-14T06:12:20.949Z,12.23
2019-02-14T06:14:50.817Z,12.97
2019-02-14T06:17:20.194Z,15.03
2019-02-14T06:19:49.570Z,10.97
2019-02-14T06:22:18.955Z,13.37
2019-02-14T06:24:48.326Z,15.77
2019-02-14T06:27:17.683Z,13.33
2019-02-14T06:29:47.103Z,14.47
2019-02-14T06:32:17.776Z,8.40
2019-02-14T06:34:47.197Z,8.13
2019-02-14T06:37:16.570Z,12.10
2019-02-14T06:39:45.906Z,10.37
2019-02-14T06:42:15.292Z,13.30
2019-02-14T06:44:44.711Z,10.00
2019-02-14T06:47:14.222Z,17.13
2019-02-14T06:49:43.621Z,10.70
2019-02-14T06:52:12.974Z,11.57
2019-02-14T06:54:44.570Z,10.67
2019-02-14T06:57:13.925Z,9.63
2019-02-14T06:59:43.288Z,12.07
2019-02-14T07:02:12.709Z,14.17
2019-02-14T07:04:42.087Z,8.43
2019-02-14T07:07:18.399Z,13.33
2019-02-14T07:09:42.573Z,9.70
2019-02-14T07:12:12.088Z,14.23
2019-02-14T07:14:41.473Z,9.50
2019-02-14T07:17:10.910Z,10.17
2019-02-14T07:19:40.340Z,11.13
2019-02-14T07:22:09.678Z,11.13
2019-02-14T07:24:39.048Z,12.40
2019-02-14T07:27:08.418Z,11.90
2019-02-14T07:29:37.818Z,9.63
2019-02-14T07:32:07.189Z,8.83
2019-02-14T07:34:36.612Z,10.43
2019-02-14T07:37:06.083Z,12.60
2019-02-14T07:39:35.448Z,12.03
2019-02-14T07:42:04.898Z,14.47
2019-02-14T07:44:34.266Z,9.40
2019-02-14T07:47:03.711Z,11.73
2019-02-14T07:49:33.157Z,8.87
2019-02-14T07:52:02.488Z,9.77
2019-02-14T07:54:31.848Z,10.97
2019-02-14T07:57:01.197Z,12.97
2019-02-14T07:59:30.602Z,8.23
2019-02-14T08:01:59.977Z,12.27
2019-02-14T08:04:29.335Z,14.30
2019-02-14T08:06:58.685Z,10.23
2019-02-14T08:09:28.022Z,10.00
2019-02-14T08:11:57.386Z,13.13
2019-02-14T08:14:26.756Z,15.50
2019-02-14T08:16:56.201Z,11.37
2019-02-14T08:19:25.619Z,12.80
2019-02-14T08:21:54.984Z,12.10
2019-02-14T08:24:24.510Z,8.80
2019-02-14T08:26:53.975Z,9.13
2019-02-14T08:29:23.312Z,9.77
2019-02-14T08:31:52.658Z,9.27
2019-02-14T08:34:22.037Z,8.70
2019-02-14T08:36:51.483Z,6.63
2019-02-14T08:39:20.806Z,8.03
2019-02-14T08:41:50.141Z,6.03
2019-02-14T08:44:19.542Z,7.97
2019-02-14T08:46:48.901Z,12.77
2019-02-14T08:49:18.292Z,6.60
2019-02-14T08:51:47.767Z,7.37
2019-02-14T08:54:17.124Z,7.83
2019-02-14T08:56:46.574Z,6.33
2019-02-14T08:59:17.416Z,9.57
2019-02-14T09:01:46.798Z,5.97
2019-02-14T09:04:16.238Z,7.43
2019-02-14T09:06:45.623Z,9.90
2019-02-14T09:09:14.957Z,7.77
2019-02-14T09:11:44.346Z,7.30
2019-02-14T09:14:13.713Z,8.90
2019-02-14T09:16:43.084Z,8.40
2019-02-14T09:19:12.411Z,10.90
2019-02-14T09:21:41.765Z,9.03
2019-02-14T09:24:11.127Z,8.17
2019-02-14T09:26:40.518Z,11.53
2019-02-14T09:29:12.064Z,11.40
2019-02-14T09:31:40.986Z,9.97
2019-02-14T09:34:10.378Z,8.37
2019-02-14T09:36:39.753Z,8.53
2019-02-14T09:39:09.193Z,10.90
2019-02-14T09:41:38.559Z,9.93
2019-02-14T09:44:07.944Z,9.27
2019-02-14T09:46:37.326Z,8.27
2019-02-14T09:49:06.735Z,8.57
2019-02-14T09:51:36.114Z,10.40
2019-02-14T09:54:05.477Z,8.60
2019-02-14T09:56:34.830Z,7.83
2019-02-14T09:59:04.215Z,11.27
2019-02-14T10:01:33.551Z,7.57
2019-02-14T10:04:02.914Z,6.70
2019-02-14T10:06:36.782Z,7.57
2019-02-14T10:09:04.973Z,10.17
2019-02-14T10:11:34.370Z,7.77
2019-02-14T10:14:03.831Z,7.53
2019-02-14T10:16:33.222Z,7.37
2019-02-14T10:19:02.609Z,6.47
2019-02-14T10:21:31.997Z,7.33
2019-02-14T10:24:01.432Z,6.00
2019-02-14T10:26:30.834Z,6.20
2019-02-14T10:29:00.202Z,5.77
2019-02-14T10:31:29.772Z,5.27
2019-02-14T10:33:59.231Z,4.57
2019-02-14T10:36:28.618Z,4.17
2019-02-14T10:38:57.979Z,5.27
2019-02-14T10:41:29.298Z,4.73
2019-02-14T10:43:58.719Z,7.47
2019-02-14T10:46:28.087Z,4.77
2019-02-14T10:48:57.485Z,8.63
2019-02-14T10:51:26.854Z,9.67
2019-02-14T10:53:56.211Z,7.10
2019-02-14T10:56:25.642Z,5.80
2019-02-14T10:58:55.019Z,6.87
2019-02-14T11:01:24.351Z,7.40
2019-02-14T11:03:53.685Z,5.20
2019-02-14T11:06:23.049Z,5.53
2019-02-14T11:08:52.448Z,5.63
2019-02-14T11:11:21.820Z,5.97
2019-02-14T11:13:51.175Z,6.63
2019-02-14T11:16:20.565Z,5.67
2019-02-14T11:18:49.933Z,6.10
2019-02-14T11:21:19.312Z,6.97
2019-02-14T11:23:48.696Z,6.23
2019-02-14T11:26:18.059Z,8.00
2019-02-14T11:28:47.387Z,7.97
2019-02-14T11:31:16.764Z,5.53
2019-02-14T11:33:46.078Z,7.43
2019-02-14T11:36:15.481Z,7.50
2019-02-14T11:38:44.831Z,9.57
2019-02-14T11:41:14.180Z,7.33
2019-02-14T11:43:43.530Z,7.70
2019-02-14T11:46:12.881Z,5.73
2019-02-14T11:48:42.264Z,7.17
2019-02-14T11:51:11.617Z,7.93
2019-02-14T11:53:40.990Z,6.40
2019-02-14T11:56:10.869Z,7.17
2019-02-14T11:58:40.208Z,7.70
2019-02-14T12:01:09.598Z,7.87
2019-02-14T12:03:39.046Z,9.30
2019-02-14T12:06:08.442Z,9.57
2019-02-14T12:08:37.811Z,7.23
2019-02-14T12:11:07.176Z,10.07
2019-02-14T12:13:36.558Z,7.93
2019-02-14T12:16:05.973Z,8.27
2019-02-14T12:18:35.343Z,8.20
2019-02-14T12:21:04.691Z,7.50
2019-02-14T12:23:34.108Z,8.10
2019-02-14T12:26:05.605Z,9.13
2019-02-14T12:28:34.527Z,6.43
2019-02-14T12:31:03.938Z,7.23
2019-02-14T12:33:33.307Z,8.60
2019-02-14T12:36:02.702Z,10.57
2019-02-14T12:38:32.103Z,6.83
2019-02-14T12:41:01.518Z,12.37
2019-02-14T12:43:30.863Z,11.17
2019-02-14T12:46:00.226Z,10.27
2019-02-14T12:48:29.804Z,10.23
2019-02-14T12:50:59.177Z,7.63
2019-02-14T12:53:28.530Z,8.77
2019-02-14T12:55:57.876Z,8.83
2019-02-14T12:58:27.263Z,9.37
2019-02-14T13:00:56.625Z,8.83
2019-02-14T13:03:26.018Z,8.73
2019-02-14T13:05:55.400Z,9.13
2019-02-14T13:08:24.742Z,9.17
2019-02-14T13:10:54.120Z,7.33
2019-02-14T13:13:23.534Z,11.13
2019-02-14T13:15:55.211Z,7.50
2019-02-14T13:18:24.626Z,11.50
2019-02-14T13:20:54.027Z,8.87
2019-02-14T13:23:23.443Z,10.57
2019-02-14T13:25:52.917Z,9.97
2019-02-14T13:28:22.327Z,8.73
2019-02-14T13:30:51.655Z,9.30
2019-02-14T13:33:21.074Z,13.70
2019-02-14T13:35:50.430Z,10.57
2019-02-14T13:38:19.882Z,15.50
2019-02-14T13:40:49.329Z,6.90
2019-02-14T13:43:18.828Z,11.33
2019-02-14T13:45:48.252Z,11.40
2019-02-14T13:48:17.796Z,11.90
2019-02-14T13:50:47.214Z,12.70
2019-02-14T13:53:16.643Z,11.90
2019-02-14T13:55:46.048Z,12.73
2019-02-14T13:58:15.524Z,9.40
2019-02-14T14:00:44.955Z,7.83
2019-02-14T14:03:14.345Z,11.20
2019-02-14T14:05:43.766Z,12.40
2019-02-14T14:08:13.241Z,13.17
2019-02-14T14:10:42.708Z,13.30
2019-02-14T14:13:12.085Z,13.77
2019-02-14T14:15:41.523Z,12.27
2019-02-14T14:18:10.880Z,12.70
2019-02-14T14:20:40.278Z,11.75
2019-02-14T14:23:09.652Z,8.47
2019-02-14T14:25:39.046Z,12.00
2019-02-14T14:28:08.500Z,12.47
2019-02-14T14:30:37.912Z,12.33
2019-02-14T14:33:07.358Z,11.17
2019-02-14T14:35:36.786Z,11.53
2019-02-14T14:38:06.270Z,13.43
2019-02-14T14:40:35.716Z,12.63
2019-02-14T14:43:32.977Z,12.23
2019-02-14T14:46:10.361Z,13.63
2019-02-14T14:48:41.647Z,16.27
2019-02-14T14:51:11.121Z,14.73
2019-02-14T14:53:41.117Z,10.97
2019-02-14T14:56:10.658Z,10.10
2019-02-14T14:58:40.112Z,10.93
2019-02-14T15:01:09.497Z,13.67
2019-02-14T15:03:40.674Z,13.47
2019-02-14T15:06:10.237Z,13.07
2019-02-14T15:08:39.723Z,16.57
2019-02-14T15:11:09.146Z,15.27
2019-02-14T15:13:38.576Z,13.57
2019-02-14T15:16:07.993Z,14.60
2019-02-14T15:18:37.403Z,20.07
2019-02-14T15:21:06.878Z,15.67
2019-02-14T15:23:36.261Z,12.30
2019-02-14T15:26:05.635Z,14.77
2019-02-14T15:28:35.007Z,15.23
2019-02-14T15:31:04.356Z,16.87
2019-02-14T15:33:33.724Z,15.70
2019-02-14T15:36:03.295Z,16.67
2019-02-14T15:38:34.525Z,16.60
2019-02-14T15:41:03.902Z,17.40
2019-02-14T15:43:33.317Z,14.73
2019-02-14T15:46:02.685Z,12.33
2019-02-14T15:48:32.117Z,13.70
2019-02-14T15:51:01.493Z,10.33
2019-02-14T15:53:30.899Z,15.90
2019-02-14T15:56:00.293Z,18.17
2019-02-14T15:58:30.710Z,20.05
2019-02-14T16:01:01.303Z,19.10
2019-02-14T16:03:30.740Z,16.00
2019-02-14T16:06:01.747Z,16.17
2019-02-14T16:08:31.446Z,15.20
2019-02-14T16:11:00.874Z,14.40
2019-02-14T16:13:31.714Z,16.17
2019-02-14T16:16:01.337Z,17.23
2019-02-14T16:18:30.739Z,16.77
2019-02-14T16:21:00.131Z,16.48
2019-02-14T16:23:34.181Z,15.17
2019-02-14T16:26:03.819Z,17.17
2019-02-14T16:28:33.227Z,19.90
2019-02-14T16:31:02.719Z,18.07
2019-02-14T16:33:32.141Z,19.07
2019-02-14T16:36:01.801Z,19.33
2019-02-14T16:38:33.043Z,18.80
2019-02-14T16:41:02.605Z,18.15
2019-02-14T16:43:32.016Z,20.48
2019-02-14T16:46:01.535Z,23.35
2019-02-14T16:48:30.995Z,18.90
2019-02-14T16:51:00.493Z,19.40
2019-02-14T16:53:29.939Z,18.62
2019-02-14T16:56:02.123Z,15.33
2019-02-14T16:58:30.555Z,16.20
2019-02-14T17:00:59.950Z,19.65
2019-02-14T17:03:29.327Z,19.67
2019-02-14T17:05:58.769Z,17.10
2019-02-14T17:08:28.164Z,19.25
2019-02-14T17:10:57.615Z,18.80
2019-02-14T17:13:27.091Z,19.80
2019-02-14T17:15:56.505Z,20.85
2019-02-14T17:18:25.940Z,18.30
2019-02-14T17:20:55.474Z,17.30
2019-02-14T17:23:24.924Z,16.13
2019-02-14T17:25:54.406Z,17.77
2019-02-14T17:28:23.926Z,15.57
2019-02-14T17:30:53.723Z,17.60
2019-02-14T17:33:23.379Z,12.63
2019-02-14T17:35:53.163Z,17.67
2019-02-14T17:38:22.622Z,19.20
2019-02-14T17:40:52.170Z,17.50
2019-02-14T17:43:21.636Z,13.93
2019-02-14T17:45:51.037Z,17.00
2019-02-14T17:48:20.552Z,22.43
2019-02-14T17:50:53.135Z,22.63
2019-02-14T17:53:22.523Z,20.57
2019-02-14T17:55:52.524Z,25.30
2019-02-14T17:58:22.033Z,23.15
2019-02-14T18:00:55.926Z,23.33
2019-02-14T18:03:22.948Z,27.20
2019-02-14T18:05:52.466Z,19.87
2019-02-14T18:08:21.849Z,22.20
2019-02-14T18:10:54.897Z,19.77
2019-02-14T18:13:22.431Z,21.60
2019-02-14T18:15:56.959Z,21.50
2019-02-14T18:18:26.447Z,21.97
2019-02-14T18:20:55.887Z,22.65
2019-02-14T18:23:25.995Z,22.90
2019-02-14T18:25:55.395Z,22.27
2019-02-14T18:28:25.022Z,22.00
2019-02-14T18:30:54.458Z,19.43
2019-02-14T18:33:23.936Z,15.90
2019-02-14T18:35:53.400Z,21.40
2019-02-14T18:38:22.872Z,22.63
2019-02-14T18:40:52.312Z,22.10
2019-02-14T18:43:21.747Z,22.10
2019-02-14T18:45:51.155Z,22.75
2019-02-14T18:48:20.537Z,23.10
2019-02-14T18:50:50.029Z,19.60
2019-02-14T18:53:19.489Z,22.57
2019-02-14T18:55:48.957Z,23.03
2019-02-14T18:58:26.015Z,24.63
2019-02-14T19:00:49.711Z,22.50
2019-02-14T19:03:19.150Z,20.67
2019-02-14T19:05:48.863Z,24.23
2019-02-14T19:08:18.317Z,23.10
2019-02-14T19:10:47.741Z,22.27
2019-02-14T19:13:19.131Z,26.20
2019-02-14T19:15:48.541Z,22.63
2019-02-14T19:18:18.051Z,23.77
2019-02-14T19:20:47.532Z,24.40
2019-02-14T19:23:24.182Z,22.40
2019-02-14T19:25:48.325Z,21.17
2019-02-14T19:28:17.768Z,24.13
2019-02-14T19:30:47.200Z,22.23
2019-02-14T19:33:17.545Z,20.57
2019-02-14T19:35:46.938Z,19.07
2019-02-14T19:38:16.407Z,20.77
2019-02-14T19:40:46.131Z,21.27
2019-02-14T19:43:15.553Z,20.10
2019-02-14T19:45:45.174Z,19.47
2019-02-14T19:48:14.856Z,23.50
2019-02-14T19:50:44.463Z,21.27
2019-02-14T19:53:14.004Z,25.62
2019-02-14T19:55:43.367Z,19.67
2019-02-14T19:58:12.788Z,24.67
2019-02-14T20:00:42.353Z,24.67
2019-02-14T20:03:11.731Z,24.53
2019-02-14T20:05:41.201Z,22.87
2019-02-14T20:08:10.668Z,23.37
2019-02-14T20:10:40.026Z,22.13
2019-02-14T20:13:09.569Z,24.57
2019-02-14T20:15:39.049Z,21.10
2019-02-14T20:18:08.401Z,21.50
2019-02-14T20:20:38.251Z,20.33
2019-02-14T20:23:07.758Z,23.20
2019-02-14T20:25:37.168Z,23.53
2019-02-14T20:28:06.642Z,18.93
2019-02-14T20:30:36.165Z,20.53
2019-02-14T20:33:05.705Z,21.03
2019-02-14T20:35:35.254Z,19.50
2019-02-14T20:38:08.369Z,21.50
2019-02-14T20:40:37.894Z,19.97
2019-02-14T20:43:11.105Z,26.70
2019-02-14T20:45:40.524Z,20.10
2019-02-14T20:48:10.360Z,23.17
2019-02-14T20:50:40.193Z,20.87
2019-02-14T20:53:09.570Z,23.30
2019-02-14T20:55:39.087Z,24.23
2019-02-14T20:58:08.516Z,23.87
2019-02-14T21:00:38.499Z,22.73
2019-02-14T21:03:08.098Z,22.27
2019-02-14T21:05:37.493Z,22.93
2019-02-14T21:08:06.869Z,24.03
2019-02-14T21:10:36.270Z,23.20
2019-02-14T21:13:05.707Z,26.37
2019-02-14T21:15:35.162Z,23.93
2019-02-14T21:18:04.561Z,19.97
2019-02-14T21:20:33.951Z,24.93
2019-02-14T21:23:03.384Z,27.23
2019-02-14T21:25:32.768Z,21.23
2019-02-14T21:28:02.138Z,21.13
2019-02-14T21:30:35.654Z,23.03
2019-02-14T21:33:02.741Z,19.50
2019-02-14T21:35:32.111Z,22.93
2019-02-14T21:38:01.483Z,24.97
2019-02-14T21:40:30.909Z,23.73
2019-02-14T21:43:00.327Z,22.13
2019-02-14T21:45:35.258Z,21.87
2019-02-14T21:48:04.946Z,21.53
2019-02-14T21:50:34.417Z,18.93
2019-02-14T21:53:05.714Z,21.47
2019-02-14T21:55:35.152Z,18.73
2019-02-14T21:58:05.599Z,21.27
2019-02-14T22:00:35.528Z,21.90
2019-02-14T22:03:05.710Z,20.53
2019-02-14T22:05:35.286Z,18.80
2019-02-14T22:08:04.750Z,19.70
2019-02-14T22:10:34.189Z,24.03
2019-02-14T22:13:11.403Z,19.77
2019-02-14T22:15:40.813Z,23.77
2019-02-14T22:18:10.173Z,21.00
2019-02-14T22:20:39.533Z,23.77
2019-02-14T22:23:08.940Z,23.53
2019-02-14T22:25:38.305Z,23.83
2019-02-14T22:28:07.895Z,21.93
2019-02-14T22:30:37.326Z,26.93
2019-02-14T22:33:06.773Z,24.60
2019-02-14T22:35:35.996Z,21.47
2019-02-14T22:38:05.444Z,22.27
2019-02-14T22:40:34.884Z,25.17
2019-02-14T22:43:04.325Z,21.73
2019-02-14T22:45:33.918Z,20.33
2019-02-14T22:48:03.371Z,21.10
2019-02-14T22:50:33.945Z,22.33
2019-02-14T22:53:03.380Z,20.87
2019-02-14T22:55:32.750Z,22.87
2019-02-14T22:58:02.166Z,19.07
2019-02-14T23:00:37.048Z,22.20
2019-02-14T23:03:06.931Z,20.73
2019-02-14T23:05:36.416Z,21.30
2019-02-14T23:08:05.861Z,19.37
2019-02-14T23:10:35.220Z,17.87
2019-02-14T23:13:04.629Z,22.37
2019-02-14T23:15:34.064Z,22.10
2019-02-14T23:18:03.820Z,19.80
2019-02-14T23:20:33.236Z,20.40
2019-02-14T23:23:02.820Z,20.33
2019-02-14T23:25:32.210Z,20.13
2019-02-14T23:28:03.010Z,21.80
2019-02-14T23:30:32.392Z,20.73
2019-02-14T23:33:02.435Z,21.67
2019-02-14T23:35:31.845Z,20.90
2019-02-14T23:38:01.244Z,22.73
2019-02-14T23:40:30.713Z,20.47
2019-02-14T23:43:04.708Z,22.43
2019-02-14T23:45:31.196Z,21.43
2019-02-14T23:48:00.607Z,19.90
2019-02-14T23:50:29.978Z,21.07
2019-02-14T23:52:59.374Z,22.03
2019-02-14T23:55:28.754Z,24.07
2019-02-14T23:57:58.107Z,19.57
